createdAt,value
2019-01-27T00:00:58.446Z,93.70
2019-01-27T00:03:28.886Z,94.50
2019-01-27T00:05:59.389Z,95.10
2019-01-27T00:08:30.013Z,95.10
2019-01-27T00:11:00.572Z,95.10
2019-01-27T00:13:30.985Z,95.50
2019-01-27T00:16:01.421Z,95.70
2019-01-27T00:18:31.803Z,96.00
2019-01-27T00:21:02.296Z,96.60
2019-01-27T00:23:32.667Z,96.80
2019-01-27T00:26:03.195Z,96.40
2019-01-27T00:28:33.747Z,96.60
2019-01-27T00:31:06.242Z,95.20
2019-01-27T00:33:36.699Z,96.20
2019-01-27T00:36:06.999Z,97.70
2019-01-27T00:38:37.397Z,97.80
2019-01-27T00:41:08.052Z,97.70
2019-01-27T00:43:39.150Z,97.80
2019-01-27T00:46:09.657Z,97.80
2019-01-27T00:48:40.102Z,97.90
2019-01-27T00:51:10.556Z,94.90
2019-01-27T00:53:41.092Z,93.80
2019-01-27T00:56:11.570Z,93.10
2019-01-27T00:58:42.043Z,92.80
2019-01-27T01:01:13.908Z,92.90
2019-01-27T01:03:44.480Z,92.60
2019-01-27T01:06:14.861Z,92.40
2019-01-27T01:08:45.308Z,92.20
2019-01-27T01:11:15.841Z,92.20
2019-01-27T01:13:46.219Z,92.00
2019-01-27T01:16:16.540Z,92.00
2019-01-27T01:18:47.135Z,91.80
2019-01-27T01:21:17.608Z,91.80
2019-01-27T01:23:47.911Z,91.70
2019-01-27T01:26:18.472Z,91.90
2019-01-27T01:28:48.910Z,91.80
2019-01-27T01:31:19.242Z,92.00
2019-01-27T01:33:49.702Z,92.00
2019-01-27T01:36:20.131Z,92.00
2019-01-27T01:38:50.677Z,92.00
2019-01-27T01:41:21.037Z,92.10
2019-01-27T01:43:51.466Z,92.20
2019-01-27T01:46:21.840Z,92.40
2019-01-27T01:48:52.158Z,92.30
2019-01-27T01:51:22.519Z,92.30
2019-01-27T01:53:53.223Z,92.40
2019-01-27T01:56:23.590Z,92.50
2019-01-27T01:58:54.084Z,92.40
2019-01-27T02:01:24.698Z,92.50
2019-01-27T02:03:55.078Z,92.40
2019-01-27T02:06:25.434Z,92.30
2019-01-27T02:08:55.933Z,92.20
2019-01-27T02:11:26.290Z,92.10
2019-01-27T02:13:56.684Z,92.30
2019-01-27T02:16:27.081Z,92.30
2019-01-27T02:18:57.445Z,92.50
2019-01-27T02:21:27.974Z,92.50
2019-01-27T02:23:58.449Z,92.70
2019-01-27T02:26:28.972Z,92.60
2019-01-27T02:29:01.669Z,92.80
2019-01-27T02:31:31.235Z,92.90
2019-01-27T02:34:01.597Z,93.10
2019-01-27T02:36:32.061Z,93.40
2019-01-27T02:39:02.494Z,93.50
2019-01-27T02:41:32.877Z,93.80
2019-01-27T02:44:03.365Z,93.70
2019-01-27T02:46:33.802Z,93.80
2019-01-27T02:49:04.199Z,93.70
2019-01-27T02:51:34.679Z,93.80
2019-01-27T02:54:05.512Z,93.90
2019-01-27T02:56:35.959Z,94.00
2019-01-27T02:59:06.682Z,94.20
2019-01-27T03:01:37.038Z,94.40
2019-01-27T03:04:07.495Z,94.30
2019-01-27T03:06:39.386Z,94.40
2019-01-27T03:09:12.113Z,94.30
2019-01-27T03:11:47.102Z,94.40
2019-01-27T03:14:18.176Z,94.50
2019-01-27T03:16:49.427Z,94.60
2019-01-27T03:19:19.918Z,94.90
2019-01-27T03:21:50.301Z,94.80
2019-01-27T03:24:20.785Z,94.70
2019-01-27T03:26:51.145Z,94.70
2019-01-27T03:29:21.550Z,94.90
2019-01-27T03:31:52.032Z,95.00
2019-01-27T03:34:22.504Z,94.90
2019-01-27T03:36:52.887Z,94.90
2019-01-27T03:39:23.241Z,94.70
2019-01-27T03:41:53.704Z,95.00
2019-01-27T03:44:24.040Z,94.60
2019-01-27T03:46:54.426Z,94.70
2019-01-27T03:49:25.019Z,94.50
2019-01-27T03:51:55.410Z,94.50
2019-01-27T03:54:27.089Z,94.50
2019-01-27T03:56:57.770Z,94.30
2019-01-27T03:59:28.201Z,94.00
2019-01-27T04:01:58.680Z,94.30
2019-01-27T04:04:29.109Z,93.90
2019-01-27T04:06:59.591Z,93.70
2019-01-27T04:09:30.087Z,93.60
2019-01-27T04:12:00.580Z,93.60
2019-01-27T04:14:30.909Z,93.30
2019-01-27T04:17:01.292Z,93.40
2019-01-27T04:19:50.863Z,93.40
2019-01-27T04:22:21.335Z,93.50
2019-01-27T04:24:51.717Z,93.50
2019-01-27T04:27:22.123Z,93.60
2019-01-27T04:29:52.609Z,93.80
2019-01-27T04:32:22.974Z,94.00
2019-01-27T04:34:53.330Z,94.50
2019-01-27T04:37:24.926Z,94.90
2019-01-27T04:39:55.318Z,95.30
2019-01-27T04:42:25.876Z,95.50
2019-01-27T04:44:56.268Z,96.10
2019-01-27T04:47:26.623Z,96.90
2019-01-27T04:49:57.049Z,96.70
2019-01-27T04:52:27.403Z,96.60
2019-01-27T04:54:57.955Z,97.00
2019-01-27T04:57:28.626Z,97.30
2019-01-27T04:59:58.908Z,98.00
2019-01-27T05:02:30.690Z,98.30
2019-01-27T05:05:01.176Z,98.40
2019-01-27T05:07:31.539Z,98.40
2019-01-27T05:10:01.896Z,98.20
2019-01-27T05:12:32.325Z,98.30
2019-01-27T05:15:02.759Z,98.40
2019-01-27T05:17:33.384Z,98.40
2019-01-27T05:20:03.897Z,98.30
2019-01-27T05:22:34.277Z,98.00
2019-01-27T05:25:06.130Z,98.50
2019-01-27T05:27:36.563Z,98.50
2019-01-27T05:30:18.571Z,99.30
2019-01-27T05:32:49.999Z,99.90
2019-01-27T05:35:20.733Z,99.90
2019-01-27T05:37:52.155Z,99.90
2019-01-27T05:40:24.093Z,99.90
2019-01-27T05:42:57.051Z,99.90
2019-01-27T05:45:27.512Z,99.90
2019-01-27T05:47:58.853Z,99.90
2019-01-27T05:50:29.425Z,99.90
2019-01-27T05:53:01.327Z,99.90
2019-01-27T05:55:31.936Z,99.90
2019-01-27T05:58:03.537Z,99.90
2019-01-27T06:00:38.323Z,99.90
2019-01-27T06:03:10.358Z,99.90
2019-01-27T06:05:40.846Z,99.90
2019-01-27T06:08:30.238Z,99.90
2019-01-27T06:11:02.150Z,99.90
2019-01-27T06:13:32.474Z,99.90
2019-01-27T06:16:02.801Z,99.90
2019-01-27T06:18:33.250Z,99.90
2019-01-27T06:21:04.803Z,99.90
2019-01-27T06:23:35.987Z,99.90
2019-01-27T06:26:06.420Z,99.90
2019-01-27T06:28:38.210Z,99.90
2019-01-27T06:31:09.080Z,99.90
2019-01-27T06:33:40.865Z,99.90
2019-01-27T06:36:11.256Z,99.90
2019-01-27T06:38:41.561Z,99.90
2019-01-27T06:41:12.021Z,99.90
2019-01-27T06:43:42.373Z,99.90
2019-01-27T06:46:12.757Z,99.90
2019-01-27T06:48:43.297Z,99.90
2019-01-27T06:51:15.821Z,99.90
2019-01-27T06:53:46.257Z,99.90
2019-01-27T06:56:16.592Z,99.90
2019-01-27T06:59:06.857Z,99.90
2019-01-27T07:01:47.703Z,99.90
2019-01-27T07:04:19.550Z,99.90
2019-01-27T07:07:07.633Z,99.90
2019-01-27T07:09:39.474Z,99.90
2019-01-27T07:12:28.963Z,99.90
2019-01-27T07:15:00.813Z,99.90
2019-01-27T07:17:44.492Z,99.90
2019-01-27T07:20:19.430Z,99.90
2019-01-27T07:23:06.249Z,99.90
2019-01-27T07:25:49.977Z,99.90
2019-01-27T07:28:23.012Z,99.90
2019-01-27T07:31:06.802Z,99.90
2019-01-27T07:33:38.636Z,99.90
2019-01-27T07:36:19.042Z,99.90
2019-01-27T07:38:50.914Z,99.90
2019-01-27T07:41:23.790Z,99.90
2019-01-27T07:44:01.685Z,99.90
2019-01-27T07:46:42.478Z,99.90
2019-01-27T07:49:23.554Z,99.90
2019-01-27T07:52:16.115Z,99.90
2019-01-27T07:54:50.854Z,99.90
2019-01-27T07:57:34.640Z,99.90
2019-01-27T08:00:13.677Z,99.90
2019-01-27T08:02:51.852Z,99.90
2019-01-27T08:05:23.684Z,99.90
2019-01-27T08:07:58.273Z,99.90
2019-01-27T08:10:30.119Z,99.90
2019-01-27T08:13:01.821Z,99.90
2019-01-27T08:15:36.449Z,99.90
2019-01-27T08:18:11.124Z,99.90
2019-01-27T08:20:58.718Z,99.90
2019-01-27T08:24:06.429Z,99.90
2019-01-27T08:26:55.652Z,99.90
2019-01-27T08:29:33.285Z,99.90
2019-01-27T08:32:23.283Z,99.90
2019-01-27T08:34:54.945Z,99.90
2019-01-27T08:37:26.805Z,99.90
2019-01-27T08:40:01.481Z,99.90
2019-01-27T08:42:36.152Z,99.90
2019-01-27T08:45:10.899Z,99.90
2019-01-27T08:47:41.376Z,99.90
2019-01-27T08:50:14.309Z,99.90
2019-01-27T08:52:44.611Z,99.90
2019-01-27T08:55:15.702Z,99.90
2019-01-27T08:57:46.100Z,99.90
2019-01-27T09:00:19.816Z,99.90
2019-01-27T09:02:54.647Z,99.90
2019-01-27T09:05:29.356Z,99.90
2019-01-27T09:08:03.570Z,99.90
2019-01-27T09:10:37.977Z,99.90
2019-01-27T09:13:15.502Z,99.90
2019-01-27T09:15:47.343Z,99.90
2019-01-27T09:18:28.086Z,99.90
2019-01-27T09:21:02.842Z,99.90
2019-01-27T09:23:40.317Z,99.90
2019-01-27T09:26:18.188Z,99.90
2019-01-27T09:28:49.876Z,99.90
2019-01-27T09:31:33.689Z,99.90
2019-01-27T09:34:17.517Z,99.90
2019-01-27T09:37:01.370Z,99.90
2019-01-27T09:39:45.153Z,99.90
2019-01-27T09:42:16.936Z,99.90
2019-01-27T09:44:57.514Z,99.90
2019-01-27T09:47:35.619Z,99.90
2019-01-27T09:50:10.281Z,99.90
2019-01-27T09:52:44.624Z,99.90
2019-01-27T09:55:19.379Z,99.90
2019-01-27T09:58:00.165Z,99.90
2019-01-27T10:00:38.302Z,99.90
2019-01-27T10:03:13.346Z,99.90
2019-01-27T10:05:45.156Z,99.90
2019-01-27T10:08:23.032Z,99.90
2019-01-27T10:11:00.807Z,99.90
2019-01-27T10:13:32.531Z,99.90
2019-01-27T10:16:16.521Z,99.90
2019-01-27T10:18:57.382Z,99.90
2019-01-27T10:21:44.301Z,99.90
2019-01-27T10:24:28.474Z,99.90
2019-01-27T10:30:14.060Z,99.90
2019-01-27T10:32:54.522Z,99.90
2019-01-27T10:35:26.368Z,99.90
2019-01-27T10:38:07.141Z,99.90
2019-01-27T10:40:39.868Z,99.90
2019-01-27T10:43:12.062Z,99.90
2019-01-27T10:45:46.381Z,99.90
2019-01-27T10:48:18.142Z,99.90
2019-01-27T10:51:05.153Z,99.90
2019-01-27T10:53:36.862Z,99.90
2019-01-27T10:56:09.112Z,99.90
2019-01-27T10:58:47.049Z,99.90
2019-01-27T11:01:21.781Z,99.90
2019-01-27T11:04:09.934Z,99.90
2019-01-27T11:06:51.010Z,99.90
2019-01-27T11:09:23.030Z,99.90
2019-01-27T11:11:54.875Z,99.90
2019-01-27T11:14:26.738Z,99.90
2019-01-27T11:17:04.935Z,99.90
2019-01-27T11:19:52.902Z,99.90
2019-01-27T11:22:24.768Z,99.90
2019-01-27T11:25:02.558Z,99.90
2019-01-27T11:27:52.093Z,99.90
2019-01-27T11:30:36.557Z,99.90
2019-01-27T11:33:08.813Z,99.90
2019-01-27T11:35:55.884Z,99.90
2019-01-27T11:38:27.641Z,99.90
2019-01-27T11:40:59.551Z,99.90
2019-01-27T11:43:47.694Z,99.90
2019-01-27T11:46:25.406Z,99.90
2019-01-27T11:48:59.843Z,99.90
2019-01-27T11:51:31.855Z,99.90
2019-01-27T11:54:02.248Z,99.90
2019-01-27T11:56:32.614Z,99.90
2019-01-27T11:59:03.073Z,99.90
2019-01-27T12:01:33.447Z,99.90
2019-01-27T12:04:03.812Z,99.90
2019-01-27T12:06:34.303Z,99.90
2019-01-27T12:09:06.072Z,99.90
2019-01-27T12:11:36.678Z,99.90
2019-01-27T12:14:07.099Z,99.90
2019-01-27T12:16:37.427Z,99.90
2019-01-27T12:19:08.059Z,99.90
2019-01-27T12:21:38.545Z,99.90
2019-01-27T12:24:08.920Z,99.90
2019-01-27T12:26:39.964Z,99.90
2019-01-27T12:29:10.295Z,99.90
2019-01-27T12:31:40.764Z,99.90
2019-01-27T12:34:11.176Z,99.90
2019-01-27T12:36:41.775Z,99.90
2019-01-27T12:39:12.178Z,99.90
2019-01-27T12:41:42.687Z,99.90
2019-01-27T12:44:13.138Z,99.90
2019-01-27T12:46:43.467Z,99.90
2019-01-27T12:49:13.900Z,99.90
2019-01-27T12:51:44.827Z,99.90
2019-01-27T12:54:15.448Z,99.90
2019-01-27T12:56:45.865Z,99.90
2019-01-27T12:59:16.338Z,99.90
2019-01-27T13:01:46.824Z,99.90
2019-01-27T13:04:17.193Z,99.90
2019-01-27T13:06:47.624Z,99.90
2019-01-27T13:09:18.050Z,99.90
2019-01-27T13:11:48.427Z,99.90
2019-01-27T13:14:18.967Z,99.90
2019-01-27T13:16:49.391Z,99.90
2019-01-27T13:19:19.778Z,99.90
2019-01-27T13:21:50.133Z,99.90
2019-01-27T13:24:20.669Z,99.90
2019-01-27T13:26:50.951Z,99.90
2019-01-27T13:29:21.394Z,99.90
2019-01-27T13:31:53.037Z,99.90
2019-01-27T13:34:23.451Z,99.90
2019-01-27T13:36:53.741Z,99.90
2019-01-27T13:39:24.197Z,99.90
2019-01-27T13:41:54.692Z,99.90
2019-01-27T13:44:30.902Z,99.90
2019-01-27T13:47:01.415Z,99.90
2019-01-27T13:49:31.946Z,99.90
2019-01-27T13:52:03.720Z,99.90
2019-01-27T13:54:34.235Z,99.90
2019-01-27T13:57:04.711Z,99.90
2019-01-27T13:59:35.049Z,99.90
2019-01-27T14:02:05.628Z,99.90
2019-01-27T14:04:35.956Z,99.90
2019-01-27T14:07:09.358Z,99.90
2019-01-27T14:09:39.816Z,99.90
2019-01-27T14:12:10.151Z,99.90
2019-01-27T14:14:41.985Z,99.90
2019-01-27T14:17:12.668Z,99.90
2019-01-27T14:19:43.053Z,99.90
2019-01-27T14:22:13.519Z,99.90
2019-01-27T14:24:44.032Z,99.90
2019-01-27T14:27:14.502Z,99.90
2019-01-27T14:29:44.904Z,99.90
2019-01-27T14:32:15.414Z,99.90
2019-01-27T14:34:45.758Z,99.90
2019-01-27T14:37:16.114Z,99.90
2019-01-27T14:39:46.550Z,99.90
2019-01-27T14:42:16.941Z,99.90
2019-01-27T14:44:47.322Z,99.90
2019-01-27T14:47:17.790Z,99.90
2019-01-27T14:49:48.093Z,99.90
2019-01-27T14:52:19.796Z,99.90
2019-01-27T14:54:50.830Z,99.90
2019-01-27T14:57:23.939Z,99.90
2019-01-27T14:59:54.386Z,99.90
2019-01-27T15:02:24.776Z,99.90
2019-01-27T15:04:55.153Z,99.90
2019-01-27T15:07:25.574Z,99.90
2019-01-27T15:09:56.101Z,99.90
2019-01-27T15:12:26.568Z,99.90
2019-01-27T15:14:58.248Z,99.20
2019-01-27T15:17:33.043Z,99.00
2019-01-27T15:20:03.492Z,97.80
2019-01-27T15:22:36.544Z,97.20
2019-01-27T15:25:09.812Z,96.50
2019-01-27T15:27:40.299Z,95.90
2019-01-27T15:30:17.975Z,95.20
2019-01-27T15:32:48.453Z,93.90
2019-01-27T15:35:20.551Z,94.10
2019-01-27T15:37:51.021Z,93.60
2019-01-27T15:40:24.592Z,93.90
2019-01-27T15:42:55.036Z,93.40
2019-01-27T15:45:33.049Z,93.90
2019-01-27T15:48:03.669Z,93.30
2019-01-27T15:50:37.842Z,93.20
2019-01-27T15:53:13.015Z,92.40
2019-01-27T15:55:43.430Z,92.10
2019-01-27T15:58:15.911Z,92.00
2019-01-27T16:00:46.413Z,91.30
2019-01-27T16:03:17.529Z,90.80
2019-01-27T16:05:47.829Z,90.00
2019-01-27T16:08:18.340Z,89.70
2019-01-27T16:10:51.198Z,90.60
2019-01-27T16:13:23.751Z,90.90
2019-01-27T16:15:54.153Z,91.40
2019-01-27T16:18:24.718Z,90.50
2019-01-27T16:20:55.317Z,89.90
2019-01-27T16:23:32.878Z,87.70
2019-01-27T16:26:04.038Z,85.20
2019-01-27T16:28:34.490Z,83.70
2019-01-27T16:31:06.252Z,82.00
2019-01-27T16:33:38.218Z,80.80
2019-01-27T16:36:08.700Z,80.30
2019-01-27T16:38:39.078Z,79.00
2019-01-27T16:41:09.712Z,81.10
2019-01-27T16:43:40.160Z,81.40
2019-01-27T16:46:10.524Z,81.80
2019-01-27T16:48:42.307Z,81.30
2019-01-27T16:51:15.497Z,79.60
2019-01-27T16:53:45.951Z,79.40
2019-01-27T16:56:16.313Z,78.30
2019-01-27T16:58:46.622Z,79.30
2019-01-27T17:01:18.817Z,81.30
2019-01-27T17:03:49.201Z,81.90
2019-01-27T17:06:19.760Z,78.90
2019-01-27T17:08:50.200Z,78.10
2019-01-27T17:11:20.541Z,77.50
2019-01-27T17:13:50.893Z,77.60
2019-01-27T17:16:21.636Z,79.00
2019-01-27T17:18:52.342Z,77.90
2019-01-27T17:21:27.180Z,79.30
2019-01-27T17:23:58.775Z,77.50
2019-01-27T17:26:29.154Z,77.10
2019-01-27T17:29:03.771Z,77.90
2019-01-27T17:31:34.233Z,76.30
2019-01-27T17:34:08.259Z,76.10
2019-01-27T17:36:38.718Z,75.20
2019-01-27T17:39:12.492Z,77.30
2019-01-27T17:41:43.525Z,75.90
2019-01-27T17:44:14.188Z,76.10
2019-01-27T17:46:44.654Z,75.50
2019-01-27T17:49:24.644Z,74.60
2019-01-27T17:51:55.010Z,75.80
2019-01-27T17:54:25.384Z,77.40
2019-01-27T17:56:59.349Z,75.80
2019-01-27T17:59:30.419Z,76.40
2019-01-27T18:02:24.124Z,75.50
2019-01-27T18:04:56.089Z,73.60
2019-01-27T18:07:27.752Z,75.60
2019-01-27T18:10:02.230Z,76.10
2019-01-27T18:12:36.603Z,75.00
2019-01-27T18:15:08.840Z,73.90
2019-01-27T18:17:39.177Z,73.20
2019-01-27T18:20:13.057Z,73.70
2019-01-27T18:22:44.858Z,72.90
2019-01-27T18:25:15.478Z,71.40
2019-01-27T18:27:46.459Z,72.20
2019-01-27T18:30:21.971Z,71.90
2019-01-27T18:32:53.572Z,70.70
2019-01-27T18:35:23.993Z,70.80
2019-01-27T18:37:54.498Z,70.90
2019-01-27T18:40:24.889Z,70.80
2019-01-27T18:42:56.735Z,72.90
2019-01-27T18:45:27.275Z,72.60
2019-01-27T18:47:57.788Z,75.40
2019-01-27T18:50:28.329Z,75.60
2019-01-27T18:53:01.472Z,74.00
2019-01-27T18:55:48.405Z,72.90
2019-01-27T18:58:20.197Z,73.80
2019-01-27T19:00:55.297Z,73.00
2019-01-27T19:03:27.234Z,72.60
2019-01-27T19:05:59.090Z,72.60
2019-01-27T19:08:57.967Z,72.70
2019-01-27T19:11:32.996Z,72.90
2019-01-27T19:14:15.656Z,73.50
2019-01-27T19:16:53.343Z,75.20
2019-01-27T19:19:25.334Z,75.50
2019-01-27T19:22:01.096Z,77.90
2019-01-27T19:24:36.012Z,76.00
2019-01-27T19:27:14.650Z,75.40
2019-01-27T19:29:52.244Z,74.20
2019-01-27T19:32:30.359Z,75.10
2019-01-27T19:35:09.779Z,77.40
2019-01-27T19:37:50.702Z,79.90
2019-01-27T19:40:22.875Z,79.50
2019-01-27T19:43:00.691Z,80.20
2019-01-27T19:45:41.208Z,80.40
2019-01-27T19:48:19.218Z,79.50
2019-01-27T19:50:50.901Z,78.40
2019-01-27T19:53:27.309Z,78.00
2019-01-27T19:55:59.043Z,77.80
2019-01-27T19:58:30.937Z,78.30
2019-01-27T20:01:02.731Z,79.10
2019-01-27T20:03:38.481Z,77.90
2019-01-27T20:06:16.266Z,76.90
2019-01-27T20:09:00.414Z,79.00
2019-01-27T20:11:47.174Z,79.70
2019-01-27T20:14:28.050Z,78.60
2019-01-27T20:17:11.676Z,77.00
2019-01-27T20:19:43.618Z,76.40
2019-01-27T20:22:17.072Z,77.60
2019-01-27T20:24:48.727Z,77.60
2019-01-27T20:27:26.163Z,79.10
2019-01-27T20:29:58.025Z,79.90
2019-01-27T20:32:29.983Z,80.60
2019-01-27T20:35:18.309Z,82.30
2019-01-27T20:37:52.954Z,82.10
2019-01-27T20:40:31.107Z,80.70
2019-01-27T20:43:14.958Z,80.70
2019-01-27T20:45:46.767Z,82.50
2019-01-27T20:48:27.503Z,82.80
2019-01-27T20:51:02.366Z,83.40
2019-01-27T20:53:34.146Z,83.00
2019-01-27T20:56:19.613Z,81.40
2019-01-27T20:58:57.477Z,80.80
2019-01-27T21:01:29.323Z,80.90
2019-01-27T21:04:02.107Z,84.50
2019-01-27T21:06:33.994Z,84.20
2019-01-27T21:09:10.102Z,83.30
2019-01-27T21:11:47.869Z,83.00
2019-01-27T21:14:31.699Z,82.50
2019-01-27T21:17:18.598Z,83.50
2019-01-27T21:19:49.178Z,84.60
2019-01-27T21:22:19.576Z,85.90
2019-01-27T21:24:50.094Z,88.90
2019-01-27T21:27:20.461Z,87.60
2019-01-27T21:29:50.836Z,88.50
2019-01-27T21:32:21.857Z,88.40
2019-01-27T21:34:52.404Z,89.90
2019-01-27T21:37:22.771Z,88.10
2019-01-27T21:39:53.224Z,88.10
2019-01-27T21:42:23.766Z,87.90
2019-01-27T21:44:54.112Z,88.40
2019-01-27T21:47:24.595Z,88.70
2019-01-27T21:49:54.972Z,89.40
2019-01-27T21:52:25.406Z,89.10
2019-01-27T21:54:55.901Z,89.80
2019-01-27T21:57:26.314Z,90.10
2019-01-27T21:59:56.669Z,90.10
2019-01-27T22:02:27.150Z,90.40
2019-01-27T22:04:57.544Z,90.40
2019-01-27T22:07:27.914Z,90.80
2019-01-27T22:09:58.432Z,90.90
2019-01-27T22:12:28.879Z,90.60
2019-01-27T22:15:01.742Z,91.10
2019-01-27T22:17:32.266Z,91.90
2019-01-27T22:20:02.773Z,91.70
2019-01-27T22:22:33.137Z,91.50
2019-01-27T22:25:03.672Z,91.00
2019-01-27T22:27:33.983Z,92.00
2019-01-27T22:30:06.029Z,91.40
2019-01-27T22:32:36.425Z,91.10
2019-01-27T22:35:08.063Z,91.30
2019-01-27T22:37:38.501Z,91.60
2019-01-27T22:40:11.560Z,91.90
2019-01-27T22:42:42.049Z,91.80
2019-01-27T22:45:14.679Z,91.70
2019-01-27T22:47:45.327Z,91.60
2019-01-27T22:50:18.162Z,92.00
2019-01-27T22:52:50.332Z,92.60
2019-01-27T22:55:20.717Z,93.00
2019-01-27T22:57:51.345Z,93.60
2019-01-27T23:00:28.557Z,93.90
2019-01-27T23:02:59.092Z,93.60
2019-01-27T23:05:29.444Z,94.90
2019-01-27T23:08:01.160Z,95.20
2019-01-27T23:10:31.572Z,95.10
2019-01-27T23:13:01.925Z,95.40
2019-01-27T23:15:32.625Z,95.00
2019-01-27T23:18:03.044Z,95.60
2019-01-27T23:20:33.388Z,96.00
2019-01-27T23:23:03.868Z,96.50
2019-01-27T23:25:34.216Z,97.10
2019-01-27T23:28:04.556Z,97.30
2019-01-27T23:30:35.222Z,97.90
2019-01-27T23:33:05.918Z,99.30
2019-01-27T23:35:39.277Z,99.00
2019-01-27T23:38:09.707Z,99.30
2019-01-27T23:40:40.047Z,99.90
2019-01-27T23:43:10.629Z,99.90
2019-01-27T23:45:40.980Z,99.90
2019-01-27T23:48:11.348Z,99.90
2019-01-27T23:50:41.888Z,99.90
2019-01-27T23:53:12.262Z,99.90
2019-01-27T23:55:42.598Z,99.90
2019-01-27T23:58:12.987Z,99.90
